Van Nuys, California
Current Conditions -  °F | °C
As of 2:51 PM on Monday 20 Oct 2014 (Local Time) from KVNY Reporting Station
Clear Clear  
Wind Chill: 80°   Ceiling: Unl
Heat Index: 80°   Visibility: 10mi
Dew Point: 56°   Wind: 0mph
Humidity: 43%   Direction: NA
Pressure: 29.87"   Gusts: NA
Location:  34.22°N, 118.48°W
Report Text: KVNY 202151Z 00000KT 10SM CLR 27/13 A2987 RMK AO2 SLP107 T02670133
Loading
Personal Weather Stations






























Interactive Weather Map
Tropical Storm Tracking
New forecast layout! Learn more

10-Day Weather Forecast

Advertisements
Track Severe Weather on mobile